Time;durP1;ratioP1;P1;durP2;ratioP2;P2;SDS_P1;SDS_P2;PMS_P1;PMS_P2;Temp;Humidity;BMP_temperature;BMP_pressure;BME280_temperature;BME280_humidity;BME280_pressure;Samples;Min_cycle;Max_cycle;Signal;HPM_P1;HPM_P2
2022/08/20 00:02:24;;;;;;;25.70;18.90;;;;;;;19.76;100.00;99641.28;1708719;84;21233;-77
2022/08/20 00:05:37;;;;;;;23.05;18.45;;;;;;;19.76;100.00;99644.06;1707315;84;21176;-77
2022/08/20 00:08:43;;;;;;;25.75;18.40;;;;;;;19.81;100.00;99653.84;1706896;82;21306;-77
2022/08/20 00:11:49;;;;;;;23.10;17.95;;;;;;;19.69;100.00;99649.47;1698290;84;21241;-77
2022/08/20 00:14:55;;;;;;;26.07;18.40;;;;;;;19.97;100.00;99652.70;1698504;84;21189;-77
2022/08/20 00:18:01;;;;;;;28.12;18.70;;;;;;;19.72;100.00;99649.81;1698769;84;21188;-78
2022/08/20 00:21:12;;;;;;;19.32;17.17;;;;;;;19.61;100.00;99648.78;1698554;84;22235;-77
2022/08/20 00:24:18;;;;;;;27.05;18.57;;;;;;;19.77;100.00;99653.22;1698499;84;21197;-77
2022/08/20 00:27:24;;;;;;;23.85;18.02;;;;;;;19.68;100.00;99656.13;1697726;84;21201;-77
2022/08/20 00:30:31;;;;;;;24.82;17.85;;;;;;;19.63;100.00;99646.61;1698440;84;21237;-77
2022/08/20 00:33:37;;;;;;;25.32;18.23;;;;;;;19.83;100.00;99652.20;1698534;84;21193;-77
2022/08/20 00:36:43;;;;;;;22.00;17.70;;;;;;;19.71;100.00;99653.66;1697785;84;21228;-76
2022/08/20 00:39:49;;;;;;;22.13;17.73;;;;;;;19.74;100.00;99655.09;1698283;84;21245;-77
2022/08/20 00:42:59;;;;;;;22.27;17.85;;;;;;;19.75;100.00;99659.00;1698230;84;21197;-77
2022/08/20 00:46:07;;;;;;;25.77;18.77;;;;;;;19.70;100.00;99647.82;1698490;84;21181;-77
2022/08/20 00:49:15;;;;;;;25.60;17.98;;;;;;;19.70;100.00;99651.14;1698412;84;21181;-77
2022/08/20 00:52:23;;;;;;;23.73;17.85;;;;;;;19.69;100.00;99650.86;1698440;84;21189;-77
2022/08/20 00:55:29;;;;;;;24.05;17.82;;;;;;;19.81;100.00;99649.69;1699394;84;21169;-77
2022/08/20 00:58:34;;;;;;;20.50;16.75;;;;;;;19.61;100.00;99654.33;1699857;84;21216;-77
2022/08/20 01:01:38;;;;;;;26.52;17.77;;;;;;;19.65;100.00;99652.73;1698864;84;21201;-77
2022/08/20 01:04:54;;;;;;;27.80;18.05;;;;;;;19.76;100.00;99652.91;1698181;84;21197;-77
2022/08/20 01:07:57;;;;;;;25.35;17.12;;;;;;;19.74;100.00;99653.16;1681320;85;21234;-77
2022/08/20 01:11:08;;;;;;;22.82;17.37;;;;;;;19.81;100.00;99658.56;1691856;84;22589;-77
2022/08/20 01:17:31;;;;;;;20.88;18.05;;;;;;;19.78;100.00;99662.67;1699510;84;21234;-77
2022/08/20 01:20:42;;;;;;;22.17;16.82;;;;;;;19.74;100.00;99663.42;1693026;84;21388;-77
2022/08/20 01:24:02;;;;;;;23.47;17.45;;;;;;;19.83;100.00;99666.91;1682209;85;21274;-77
2022/08/20 01:27:10;;;;;;;23.22;17.35;;;;;;;19.77;100.00;99675.42;1682557;85;21214;-77
2022/08/20 01:30:15;;;;;;;21.02;16.75;;;;;;;20.02;100.00;99671.66;1675241;85;21178;-77
2022/08/20 01:33:20;;;;;;;24.40;16.82;;;;;;;20.03;100.00;99673.33;1682989;85;21218;-77
2022/08/20 01:36:31;;;;;;;26.05;17.15;;;;;;;19.89;100.00;99678.93;1692234;84;21267;-77
2022/08/20 01:39:40;;;;;;;29.07;18.37;;;;;;;19.93;100.00;99687.05;1695133;84;21803;-77
2022/08/20 01:42:50;;;;;;;33.67;17.92;;;;;;;20.07;100.00;99702.27;1696126;84;21824;-77
2022/08/20 01:45:58;;;;;;;27.45;18.20;;;;;;;20.11;100.00;99692.89;1721944;83;21180;-77
2022/08/20 01:49:04;;;;;;;24.72;17.35;;;;;;;20.14;100.00;99700.17;1700435;84;21209;-78
2022/08/20 01:52:13;;;;;;;25.25;17.90;;;;;;;20.10;100.00;99703.16;1757787;81;21827;-77
2022/08/20 01:55:20;;;;;;;28.02;18.62;;;;;;;20.13;100.00;99695.69;1756607;81;21220;-77
2022/08/20 01:58:28;;;;;;;25.05;18.00;;;;;;;20.01;100.00;99699.67;1756669;81;21213;-78
2022/08/20 02:01:42;;;;;;;19.70;16.70;;;;;;;20.00;100.00;99699.39;1757817;81;21224;-78
2022/08/20 02:04:50;;;;;;;22.37;17.62;;;;;;;19.83;100.00;99694.66;1758598;80;21186;-78
2022/08/20 02:07:55;;;;;;;22.42;17.32;;;;;;;19.83;100.00;99696.60;1788518;80;21280;-78
2022/08/20 02:11:01;;;;;;;25.45;15.70;;;;;;;19.51;100.00;99699.05;1789723;79;22029;-78
2022/08/20 02:14:07;;;;;;;24.00;16.73;;;;;;;19.49;100.00;99702.63;1794430;80;21228;-78
2022/08/20 02:17:14;;;;;;;18.27;14.98;;;;;;;19.37;100.00;99711.00;1794507;80;21427;-78
2022/08/20 02:20:25;;;;;;;20.08;16.52;;;;;;;19.29;100.00;99712.26;1794369;80;21165;-78
2022/08/20 02:23:32;;;;;;;22.82;15.83;;;;;;;19.26;100.00;99717.45;1794462;80;21220;-78
2022/08/20 02:26:37;;;;;;;23.18;16.82;;;;;;;19.41;100.00;99713.02;1794727;80;21197;-78
2022/08/20 02:29:43;;;;;;;21.95;15.23;;;;;;;19.58;100.00;99710.30;1794343;80;21161;-78
2022/08/20 02:32:50;;;;;;;24.57;16.30;;;;;;;19.70;100.00;99716.34;1794481;80;21181;-78
2022/08/20 02:35:56;;;;;;;26.57;16.55;;;;;;;19.59;100.00;99716.13;1774279;80;21207;-78
2022/08/20 02:39:02;;;;;;;24.43;15.70;;;;;;;19.59;100.00;99709.75;1751817;81;21227;-78
2022/08/20 02:42:08;;;;;;;23.80;15.72;;;;;;;19.56;100.00;99706.08;1752709;81;21203;-78
2022/08/20 02:45:14;;;;;;;23.62;15.03;;;;;;;19.58;100.00;99715.00;1753253;81;21188;-78
2022/08/20 02:48:23;;;;;;;22.30;14.00;;;;;;;19.04;100.00;99723.66;1752868;81;21305;-78
2022/08/20 02:51:28;;;;;;;22.98;14.35;;;;;;;19.11;100.00;99724.38;1758727;81;21813;-78
2022/08/20 02:54:34;;;;;;;23.65;13.95;;;;;;;19.23;100.00;99726.25;1763420;81;21181;-78
2022/08/20 02:57:40;;;;;;;19.50;13.50;;;;;;;19.23;100.00;99723.48;1762850;81;21239;-78
2022/08/20 03:00:48;;;;;;;17.15;13.58;;;;;;;19.33;100.00;99729.22;1762855;81;21169;-78
2022/08/20 03:03:57;;;;;;;23.27;14.33;;;;;;;19.30;100.00;99732.50;1763063;81;21201;-78
2022/08/20 03:07:01;;;;;;;17.48;13.38;;;;;;;19.10;100.00;99727.37;1792081;80;21182;-78
2022/08/20 03:10:07;;;;;;;18.15;13.32;;;;;;;19.25;100.00;99729.09;1792816;80;21192;-78
2022/08/20 03:13:12;;;;;;;24.07;13.28;;;;;;;19.05;100.00;99731.42;1789564;80;21209;-78
2022/08/20 03:16:18;;;;;;;20.08;13.32;;;;;;;19.40;100.00;99739.63;1789097;80;21185;-78
2022/08/20 03:19:25;;;;;;;17.50;13.10;;;;;;;19.26;100.00;99734.08;1788157;80;21221;-78
2022/08/20 03:22:31;;;;;;;20.32;14.13;;;;;;;19.32;100.00;99740.02;1789308;80;21182;-77
2022/08/20 03:25:36;;;;;;;22.35;13.30;;;;;;;19.34;100.00;99742.02;1787570;80;21874;-77
2022/08/20 03:28:42;;;;;;;19.12;13.58;;;;;;;19.40;100.00;99738.24;1787360;80;21178;-77
2022/08/20 03:31:48;;;;;;;21.45;12.80;;;;;;;19.37;100.00;99743.73;1787466;80;21487;-77
2022/08/20 03:34:52;;;;;;;18.52;13.40;;;;;;;19.40;100.00;99749.33;1785516;80;21181;-77
2022/08/20 03:37:58;;;;;;;21.05;12.85;;;;;;;19.35;100.00;99749.23;1755344;81;21718;-77
2022/08/20 03:41:04;;;;;;;25.02;12.40;;;;;;;19.40;100.00;99749.33;1755456;81;21840;-77
2022/08/20 03:44:11;;;;;;;21.12;13.62;;;;;;;19.49;100.00;99747.02;1755858;81;21485;-77
2022/08/20 03:47:17;;;;;;;16.82;11.65;;;;;;;19.43;100.00;99748.81;1755692;81;21328;-77
2022/08/20 03:50:23;;;;;;;21.70;12.20;;;;;;;19.30;100.00;99749.98;1754445;81;21218;-77
2022/08/20 03:53:34;;;;;;;21.02;12.55;;;;;;;19.31;100.00;99754.98;1740615;81;21736;-77
2022/08/20 03:56:36;;;;;;;21.70;11.85;;;;;;;19.53;100.00;99754.59;1754902;81;21213;-77
2022/08/20 03:59:41;;;;;;;23.32;11.15;;;;;;;19.59;100.00;99750.81;1754763;81;21223;-77
2022/08/20 04:02:48;;;;;;;21.45;11.55;;;;;;;19.35;100.00;99749.23;1755869;81;21753;-77
2022/08/20 04:05:54;;;;;;;21.93;11.93;;;;;;;19.52;100.00;99751.48;1771811;80;21181;-77
2022/08/20 04:09:01;;;;;;;20.92;10.80;;;;;;;19.41;100.00;99756.56;1788784;80;21743;-77
2022/08/20 04:12:11;;;;;;;22.62;10.78;;;;;;;19.40;100.00;99759.04;1788805;80;21495;-77
2022/08/20 04:15:17;;;;;;;18.90;10.82;;;;;;;19.54;100.00;99762.36;1791372;80;21252;-77
2022/08/20 04:18:24;;;;;;;23.90;9.73;;;;;;;19.63;100.00;99766.45;1794783;80;21197;-77
2022/08/20 04:21:30;;;;;;;17.45;10.23;;;;;;;19.58;100.00;99772.70;1794581;80;21177;-77
2022/08/20 04:24:36;;;;;;;18.75;10.10;;;;;;;19.74;100.00;99761.92;1794088;80;21185;-77
2022/08/20 04:27:48;;;;;;;23.25;10.35;;;;;;;19.68;100.00;99758.77;1793008;80;21220;-77
2022/08/20 04:30:53;;;;;;;21.40;9.15;;;;;;;19.68;100.00;99764.31;1792949;80;21810;-77
2022/08/20 04:33:59;;;;;;;27.65;9.63;;;;;;;19.72;100.00;99774.67;1794102;80;21173;-77
2022/08/20 04:37:04;;;;;;;29.00;10.25;;;;;;;19.76;100.00;99769.44;1792689;80;21173;-77
2022/08/20 04:43:41;;;;;;;32.38;9.15;;;;;;;19.84;100.00;99761.55;1794884;80;21203;-77
2022/08/20 04:46:48;;;;;;;27.45;8.60;;;;;;;19.98;100.00;99762.07;1794292;80;21475;-77
2022/08/20 04:49:58;;;;;;;21.30;7.90;;;;;;;20.00;100.00;99764.06;1791646;80;21822;-77
2022/08/20 04:53:03;;;;;;;23.57;8.43;;;;;;;20.00;100.00;99761.29;1752685;81;21164;-77
2022/08/20 04:56:08;;;;;;;26.12;8.40;;;;;;;20.08;100.00;99756.69;1752937;81;21605;-77
2022/08/20 04:59:14;;;;;;;30.25;8.83;;;;;;;20.27;100.00;99757.83;1752913;81;21195;-77
2022/08/20 05:02:20;;;;;;;31.75;9.13;;;;;;;20.37;100.00;99756.59;1753023;81;22464;-77
2022/08/20 05:05:26;;;;;;;22.93;8.10;;;;;;;20.47;100.00;99763.75;1753803;81;21187;-77
2022/08/20 05:08:32;;;;;;;35.68;9.30;;;;;;;20.58;100.00;99755.01;1755591;81;21195;-77
2022/08/20 05:11:38;;;;;;;24.23;8.05;;;;;;;20.61;100.00;99756.73;1736974;81;21199;-77
2022/08/20 05:14:46;;;;;;;35.98;9.05;;;;;;;20.67;100.00;99758.48;1752655;80;21218;-77
2022/08/20 05:17:52;;;;;;;22.42;8.50;;;;;;;20.74;100.00;99759.67;1755686;81;21243;-77
2022/08/20 05:21:02;;;;;;;43.73;8.40;;;;;;;20.76;100.00;99754.72;1755064;81;21280;-77
2022/08/20 05:24:06;;;;;;;31.73;8.45;;;;;;;20.83;100.00;99758.14;1755532;81;21179;-77
2022/08/20 05:27:11;;;;;;;31.17;7.92;;;;;;;20.80;100.00;99758.67;1756025;81;21198;-77
2022/08/20 05:30:19;;;;;;;24.82;8.35;;;;;;;20.90;100.00;99751.86;1755496;81;21257;-77
2022/08/20 05:33:20;;;;;;;43.90;8.63;;;;;;;20.92;100.00;99750.20;1755745;81;21175;-77
2022/08/20 05:36:14;;;;;;;30.97;7.58;;;;;;;20.94;100.00;99750.80;1755901;81;21187;-77
2022/08/20 05:39:19;;;;;;;33.38;8.48;;;;;;;20.98;100.00;99756.11;1755815;81;22455;-77
2022/08/20 05:42:25;;;;;;;26.70;8.00;;;;;;;21.03;100.00;99757.59;1725676;83;21183;-77
2022/08/20 05:45:30;;;;;;;30.62;8.95;;;;;;;21.03;100.00;99760.89;1726070;83;21266;-77
2022/08/20 05:48:36;;;;;;;35.58;8.15;;;;;;;20.97;100.00;99762.77;1725600;83;21442;-77
2022/08/20 05:51:42;;;;;;;42.43;8.73;;;;;;;21.05;100.00;99753.98;1742038;81;21561;-77
2022/08/20 05:54:49;;;;;;;42.50;8.83;;;;;;;21.04;100.00;99760.66;1768403;80;21248;-77
2022/08/20 05:57:54;;;;;;;23.77;9.03;;;;;;;21.04;100.00;99755.09;1786324;80;21260;-77
2022/08/20 06:01:01;;;;;;;31.52;8.30;;;;;;;21.24;100.00;99750.33;1786369;80;21209;-77
2022/08/20 06:04:23;;;;;;;36.68;9.80;;;;;;;21.38;100.00;99748.86;1787351;80;21177;-77
2022/08/20 06:07:29;;;;;;;34.65;9.08;;;;;;;21.52;100.00;99747.06;1786805;80;21212;-77
2022/08/20 06:10:35;;;;;;;21.87;7.75;;;;;;;21.74;100.00;99751.16;1764365;80;21195;-77
2022/08/20 06:13:41;;;;;;;32.53;8.70;;;;;;;22.05;100.00;99755.92;1755172;81;21813;-77
2022/08/20 06:16:48;;;;;;;31.82;9.03;;;;;;;22.34;100.00;99757.02;1763499;79;21291;-77
2022/08/20 06:19:55;;;;;;;31.82;8.95;;;;;;;22.54;100.00;99766.94;1768438;81;21188;-77
2022/08/20 06:23:02;;;;;;;36.17;9.40;;;;;;;22.81;95.59;99769.59;1768676;81;21231;-77
2022/08/20 06:26:08;;;;;;;31.35;9.48;;;;;;;22.84;93.28;99773.25;1768425;81;21662;-77
2022/08/20 06:29:15;;;;;;;41.95;8.75;;;;;;;22.67;94.74;99766.44;1767602;81;21196;-77
2022/08/20 06:32:15;;;;;;;45.98;9.23;;;;;;;22.80;94.40;99755.38;1767516;81;21172;-77
2022/08/20 06:35:21;;;;;;;29.60;9.13;;;;;;;22.76;93.39;99753.40;1768491;81;21192;-77
2022/08/20 06:38:27;;;;;;;31.70;9.13;;;;;;;22.66;94.05;99752.78;1768514;81;21191;-77
2022/08/20 06:41:34;;;;;;;37.25;8.48;;;;;;;22.76;93.13;99750.61;1768231;81;21193;-77
2022/08/20 06:44:39;;;;;;;41.23;10.32;;;;;;;22.69;94.71;99753.09;1767749;81;21204;-77
2022/08/20 06:47:49;;;;;;;36.15;9.28;;;;;;;22.80;95.15;99755.94;1768480;81;21227;-77
2022/08/20 06:50:55;;;;;;;32.83;9.47;;;;;;;22.91;93.53;99761.88;1767775;81;21275;-77
2022/08/20 06:54:00;;;;;;;22.80;8.00;;;;;;;22.91;93.53;99761.88;1768491;81;21740;-77
2022/08/20 06:57:05;;;;;;;41.58;10.20;;;;;;;22.93;93.98;99759.67;1768272;81;21177;-77
2022/08/20 07:00:15;;;;;;;44.05;10.03;;;;;;;23.08;94.42;99763.08;1766869;81;21586;-77
2022/08/20 07:03:21;;;;;;;45.90;10.00;;;;;;;23.21;93.61;99764.81;1767328;81;22488;-77
2022/08/20 07:06:27;;;;;;;40.15;10.23;;;;;;;23.37;91.36;99763.47;1766985;81;21705;-77
2022/08/20 07:09:34;;;;;;;29.35;8.73;;;;;;;23.46;91.76;99765.45;1768205;81;21193;-77
2022/08/20 07:12:40;;;;;;;30.68;9.60;;;;;;;23.40;90.71;99763.77;1768164;81;21180;-77
2022/08/20 07:15:48;;;;;;;38.53;10.13;;;;;;;23.52;90.20;99756.53;1768139;81;21290;-77
2022/08/20 07:18:53;;;;;;;28.98;9.70;;;;;;;23.50;89.95;99759.34;1764223;81;21786;-77
2022/08/20 07:21:58;;;;;;;30.92;8.55;;;;;;;23.71;89.54;99766.13;1766013;81;21203;-77
2022/08/20 07:25:03;;;;;;;34.13;8.83;;;;;;;23.71;89.50;99761.08;1768710;80;21212;-77
2022/08/20 07:28:08;;;;;;;25.57;9.25;;;;;;;23.87;89.97;99770.34;1739354;81;21215;-77
2022/08/20 07:34:40;;;;;;;30.02;9.98;;;;;;;24.22;88.27;99764.76;1775999;80;21232;-77
2022/08/20 07:37:47;;;;;;;29.72;9.33;;;;;;;24.49;86.24;99763.66;1789162;80;21184;-77
2022/08/20 07:40:54;;;;;;;37.98;9.73;;;;;;;24.57;84.63;99760.31;1740376;80;21239;-77
2022/08/20 07:43:59;;;;;;;22.70;8.93;;;;;;;24.71;83.47;99766.16;1764663;81;21825;-77
2022/08/20 07:47:07;;;;;;;30.45;8.55;;;;;;;24.82;83.39;99752.41;1771486;80;21168;-78
2022/08/20 07:50:14;;;;;;;28.60;9.00;;;;;;;25.20;83.42;99754.27;1789284;80;21239;-78
2022/08/20 07:53:18;;;;;;;25.17;8.58;;;;;;;25.13;82.21;99759.36;1774697;80;21149;-78
2022/08/20 07:56:27;;;;;;;37.65;8.45;;;;;;;25.21;82.05;99758.73;1746650;81;21199;-78
2022/08/20 07:59:34;;;;;;;26.15;8.48;;;;;;;25.33;82.10;99762.05;1745776;80;21164;-78
2022/08/20 08:02:41;;;;;;;29.80;9.60;;;;;;;25.36;81.10;99771.29;1755835;81;21184;-78
2022/08/20 08:05:53;;;;;;;24.60;9.95;;;;;;;25.54;79.12;99758.58;1767890;80;21727;-78
2022/08/20 08:09:00;;;;;;;26.48;8.68;;;;;;;25.48;81.00;99762.53;1745131;81;21173;-77
2022/08/20 08:12:07;;;;;;;36.42;9.08;;;;;;;25.65;80.12;99758.81;1749150;80;21168;-78
2022/08/20 08:15:16;;;;;;;28.85;8.60;;;;;;;25.72;79.08;99764.91;1742290;81;21203;-77
2022/08/20 08:18:27;;;;;;;23.38;8.40;;;;;;;25.79;76.82;99771.64;1739980;79;21322;-77
2022/08/20 08:21:33;;;;;;;27.02;9.30;;;;;;;25.76;76.21;99767.17;1744785;80;21180;-77
2022/08/20 08:24:38;;;;;;;27.77;8.70;;;;;;;25.79;77.83;99761.00;1778622;80;21223;-77
2022/08/20 08:27:47;;;;;;;15.83;7.90;;;;;;;25.94;76.08;99765.09;1754418;80;21190;-77
2022/08/20 08:30:54;;;;;;;30.27;9.23;;;;;;;26.00;76.67;99759.72;1753594;80;21232;-77
2022/08/20 08:33:59;;;;;;;22.05;8.83;;;;;;;25.97;75.39;99753.28;1746127;81;22015;-77
2022/08/20 08:37:05;;;;;;;18.32;7.65;;;;;;;26.06;74.73;99753.50;1746856;81;21176;-77
2022/08/20 08:40:12;;;;;;;24.12;7.78;;;;;;;26.21;74.10;99747.22;1743742;81;21243;-77
2022/08/20 08:43:20;;;;;;;19.75;7.65;;;;;;;26.37;71.98;99748.48;1768751;80;21160;-77
2022/08/20 08:46:30;;;;;;;18.85;8.68;;;;;;;26.40;70.69;99747.34;1755026;80;21184;-77
2022/08/20 08:49:39;;;;;;;23.22;8.28;;;;;;;26.48;71.05;99743.07;1753236;81;21156;-77
2022/08/20 08:52:45;;;;;;;21.30;8.15;;;;;;;26.57;70.43;99742.70;1759036;80;21833;-77
2022/08/20 08:55:52;;;;;;;25.90;8.65;;;;;;;26.60;70.31;99734.27;1764195;80;21223;-77
2022/08/20 08:58:56;;;;;;;21.57;8.40;;;;;;;26.57;71.51;99725.88;1767056;80;21848;-78
2022/08/20 09:02:04;;;;;;;23.40;8.13;;;;;;;26.62;73.63;99728.63;1747767;81;21961;-77
2022/08/20 09:05:13;;;;;;;15.80;7.30;;;;;;;26.66;71.26;99719.89;1757548;80;21176;-78
2022/08/20 09:08:22;;;;;;;17.95;8.30;;;;;;;26.75;70.47;99719.51;1746239;81;21165;-77
2022/08/20 09:11:29;;;;;;;18.90;7.83;;;;;;;26.81;70.37;99720.85;1746903;81;21211;-83
2022/08/20 09:14:37;;;;;;;15.35;7.40;;;;;;;26.87;71.03;99718.28;1746592;80;21243;-77
2022/08/20 09:17:42;;;;;;;18.70;8.23;;;;;;;26.95;70.70;99726.84;1724801;81;21203;-78
2022/08/20 09:20:49;;;;;;;20.05;8.08;;;;;;;27.00;70.79;99724.55;1767361;79;21189;-78
2022/08/20 09:23:55;;;;;;;21.68;8.28;;;;;;;27.06;70.96;99728.98;1716967;81;21272;-78
2022/08/20 09:27:01;;;;;;;17.07;7.53;;;;;;;27.13;68.54;99732.84;1697431;84;21508;-77
2022/08/20 09:32:42;;;;;;;23.45;9.23;;;;;;;27.30;68.01;99730.96;1858481;76;28037;-78
2022/08/20 09:35:48;;;;;;;15.63;7.58;;;;;;;27.31;67.87;99735.44;1752774;80;21759;-78
2022/08/20 09:38:54;;;;;;;19.27;8.78;;;;;;;27.39;67.62;99738.98;1751664;80;21181;-78
2022/08/20 09:42:00;;;;;;;16.50;7.65;;;;;;;27.37;66.98;99745.45;1750761;80;21188;-78
2022/08/20 09:45:06;;;;;;;11.08;7.40;;;;;;;27.31;65.17;99745.26;1744410;82;21210;-78
2022/08/20 09:48:13;;;;;;;16.90;7.62;;;;;;;27.47;64.43;99746.70;1745211;82;21212;-78
2022/08/20 09:51:19;;;;;;;15.70;7.95;;;;;;;27.47;66.76;99745.30;1764778;80;21231;-78
2022/08/20 09:54:28;;;;;;;19.25;8.15;;;;;;;27.55;67.89;99736.21;1763699;80;21719;-78
2022/08/20 09:57:33;;;;;;;20.17;7.90;;;;;;;27.58;65.43;99741.23;1759709;81;21178;-78
2022/08/20 10:00:39;;;;;;;15.68;7.78;;;;;;;28.00;64.68;99745.13;1753461;80;21157;-78
2022/08/20 10:03:46;;;;;;;22.42;7.87;;;;;;;27.94;65.47;99740.71;1759843;80;21173;-78
2022/08/20 10:06:53;;;;;;;20.17;8.70;;;;;;;27.94;66.49;99738.73;1752762;81;21176;-78
2022/08/20 10:09:59;;;;;;;20.25;8.63;;;;;;;27.90;65.77;99724.19;1754196;80;21552;-78
2022/08/20 10:13:05;;;;;;;18.80;8.98;;;;;;;27.82;67.16;99736.14;1766824;80;21153;-78
2022/08/20 10:16:11;;;;;;;20.97;8.25;;;;;;;27.81;65.68;99727.42;1760948;80;21202;-78
2022/08/20 10:19:16;;;;;;;25.23;8.38;;;;;;;27.82;65.60;99731.35;1758276;80;21716;-78
2022/08/20 10:22:15;;;;;;;29.60;7.92;;;;;;;27.83;65.21;99720.95;1781110;80;21200;-77
2022/08/20 10:25:16;;;;;;;21.87;7.37;;;;;;;27.91;66.33;99718.86;1783802;80;21188;-78
2022/08/20 10:28:22;;;;;;;26.12;8.83;;;;;;;28.00;64.63;99719.84;1783693;80;21165;-78
2022/08/20 10:31:26;;;;;;;22.73;7.87;;;;;;;28.11;65.66;99717.68;1734396;81;21679;-78
2022/08/20 10:34:31;;;;;;;15.45;7.95;;;;;;;28.45;66.40;99709.77;1736804;82;21186;-78
2022/08/20 10:37:37;;;;;;;17.60;7.25;;;;;;;28.46;64.43;99708.62;1735155;81;21182;-78
2022/08/20 10:40:42;;;;;;;24.07;6.78;;;;;;;28.70;63.50;99710.44;1732420;82;21165;-78
2022/08/20 10:43:50;;;;;;;25.27;8.30;;;;;;;28.77;63.65;99710.87;1735284;82;21196;-78
2022/08/20 10:46:56;;;;;;;13.28;6.97;;;;;;;28.95;61.38;99699.29;1752712;80;21249;-78
2022/08/20 10:50:04;;;;;;;17.05;7.33;;;;;;;28.92;60.56;99712.54;1733796;82;21213;-78
2022/08/20 10:53:11;;;;;;;16.02;7.20;;;;;;;28.98;60.24;99708.49;1742002;82;21383;-78
2022/08/20 10:56:17;;;;;;;16.60;7.67;;;;;;;29.01;56.81;99707.88;1747555;82;21222;-78
2022/08/20 10:59:22;;;;;;;15.38;7.22;;;;;;;28.89;56.92;99701.34;1747732;82;21233;-78
2022/08/20 11:02:28;;;;;;;17.52;7.33;;;;;;;28.89;56.92;99701.34;1747450;82;21273;-78
2022/08/20 11:05:33;;;;;;;19.62;7.53;;;;;;;29.01;57.48;99698.03;1717492;82;21162;-78
2022/08/20 11:08:39;;;;;;;16.85;7.60;;;;;;;28.96;55.75;99693.91;1744178;81;21265;-78
2022/08/20 11:11:45;;;;;;;13.28;6.62;;;;;;;28.96;55.75;99693.91;1726570;82;21174;-78
2022/08/20 11:14:44;;;;;;;;;;;;;;;29.01;54.62;99692.39;1737412;82;21166;-78
2022/08/20 11:17:49;;;;;;;12.65;6.87;;;;;;;28.90;55.92;99685.30;1736793;82;21025;-78
2022/08/20 11:20:56;;;;;;;11.43;6.70;;;;;;;28.90;55.92;99685.30;1730553;81;21194;-78
2022/08/20 11:24:01;;;;;;;10.90;7.45;;;;;;;28.86;56.53;99687.89;1738989;81;21179;-78
2022/08/20 11:27:07;;;;;;;13.70;6.75;;;;;;;28.93;56.45;99688.87;1725958;82;21187;-78
2022/08/20 11:30:15;;;;;;;12.82;7.15;;;;;;;29.08;55.56;99680.16;1725993;82;21257;-78
2022/08/20 11:33:22;;;;;;;13.13;6.75;;;;;;;29.08;55.56;99680.16;1723905;82;21509;-78
2022/08/20 11:36:29;;;;;;;18.40;6.95;;;;;;;29.18;54.29;99681.34;1730880;83;21524;-78
2022/08/20 11:39:34;;;;;;;15.53;6.87;;;;;;;29.18;54.29;99681.34;1741143;82;21250;-78
2022/08/20 11:42:40;;;;;;;13.13;6.62;;;;;;;29.18;54.92;99679.92;1746170;81;21345;-78
2022/08/20 11:45:47;;;;;;;20.43;6.47;;;;;;;29.13;55.06;99682.03;1729982;81;21245;-78
2022/08/20 11:48:53;;;;;;;17.82;6.25;;;;;;;29.16;55.29;99680.80;1767584;80;21198;-78
2022/08/20 11:51:59;;;;;;;15.80;5.97;;;;;;;29.22;54.80;99676.75;1739952;81;21272;-78
2022/08/20 11:55:06;;;;;;;21.17;6.60;;;;;;;29.22;54.80;99676.75;1737872;81;21158;-78
2022/08/20 11:58:13;;;;;;;12.70;6.65;;;;;;;29.26;54.29;99666.48;1745510;81;21242;-78
2022/08/20 12:01:19;;;;;;;13.00;6.45;;;;;;;29.40;53.26;99661.41;1741040;81;21774;-78
2022/08/20 12:04:25;;;;;;;14.25;6.53;;;;;;;29.50;52.80;99662.57;1735311;81;21230;-78
2022/08/20 12:07:32;;;;;;;15.05;5.90;;;;;;;29.58;51.69;99669.48;1740014;81;21229;-78
2022/08/20 12:10:37;;;;;;;19.05;5.45;;;;;;;29.66;52.01;99653.23;1747459;81;21179;-78
2022/08/20 12:13:44;;;;;;;16.75;6.25;;;;;;;29.72;53.14;99650.53;1738887;81;21194;-78
2022/08/20 12:16:44;;;;;;;18.25;6.28;;;;;;;29.75;52.50;99653.55;1744442;81;21888;-78
2022/08/20 12:19:49;;;;;;;24.45;6.12;;;;;;;29.80;51.94;99649.77;1738396;81;21200;-78
2022/08/20 12:22:57;;;;;;;17.40;6.25;;;;;;;29.83;51.42;99651.96;1740455;81;21180;-78
2022/08/20 12:26:02;;;;;;;16.60;5.12;;;;;;;29.74;49.75;99653.88;1740507;81;21186;-78
2022/08/20 12:29:08;;;;;;;14.50;5.33;;;;;;;29.73;49.85;99636.11;1736261;82;21761;-78
2022/08/20 12:32:15;;;;;;;13.10;5.75;;;;;;;29.72;49.94;99625.17;1736396;81;21283;-78
2022/08/20 12:35:22;;;;;;;21.65;5.30;;;;;;;29.68;50.28;99609.47;1753694;81;21269;-78
2022/08/20 12:38:29;;;;;;;15.75;5.72;;;;;;;29.62;50.89;99616.39;1737605;82;21234;-78
2022/08/20 12:41:34;;;;;;;28.17;5.87;;;;;;;29.49;50.96;99608.21;1736942;82;21201;-78
2022/08/20 12:44:40;;;;;;;24.10;5.80;;;;;;;29.27;50.66;99610.45;1735423;81;21179;-78
2022/08/20 12:47:49;;;;;;;24.80;6.20;;;;;;;29.27;50.66;99610.45;1740836;81;21166;-78
2022/08/20 12:50:48;;;;;;;17.05;5.25;;;;;;;29.06;50.82;99596.57;1744195;81;21177;-78
2022/08/20 12:53:42;;;;;;;19.85;5.97;;;;;;;29.06;50.82;99596.57;1754733;81;21277;-78
2022/08/20 12:56:48;;;;;;;20.30;5.60;;;;;;;29.00;52.09;99595.03;1730739;83;21225;-78
2022/08/20 12:59:53;;;;;;;20.35;4.87;;;;;;;29.05;52.93;99615.20;1801740;79;21181;-78
2022/08/20 13:03:02;;;;;;;22.95;5.45;;;;;;;29.05;52.93;99615.20;1802446;79;21177;-78
2022/08/20 13:06:08;;;;;;;22.73;5.25;;;;;;;29.22;52.01;99635.08;1803401;78;21217;-78
2022/08/20 13:09:14;;;;;;;24.25;5.97;;;;;;;29.22;52.01;99635.08;1809864;78;21220;-79
2022/08/20 13:12:20;;;;;;;23.87;5.20;;;;;;;29.38;50.54;99645.41;1798227;78;21158;-79
2022/08/20 13:15:26;;;;;;;21.60;5.85;;;;;;;29.38;50.54;99645.41;1801074;79;21261;-79
2022/08/20 13:18:32;;;;;;;23.22;5.85;;;;;;;29.47;51.92;99651.37;1801719;79;21236;-79
2022/08/20 13:21:38;;;;;;;24.75;5.62;;;;;;;29.17;53.32;99621.95;1801991;79;21185;-79
2022/08/20 13:24:46;;;;;;;23.45;5.03;;;;;;;29.09;53.97;99612.84;1806310;78;21241;-79
2022/08/20 13:27:52;;;;;;;22.20;5.72;;;;;;;29.04;53.88;99610.14;1821578;78;21229;-79
2022/08/20 13:31:00;;;;;;;24.27;6.12;;;;;;;29.04;53.88;99610.14;1823737;78;21181;-78
2022/08/20 13:34:07;;;;;;;11.18;4.47;;;;;;;28.93;54.29;99659.31;1750775;82;21776;-78
2022/08/20 13:37:25;;;;;;;20.95;4.58;;;;;;;28.93;54.29;99659.31;1823837;78;21221;-78
2022/08/20 13:40:31;;;;;;;24.32;5.12;;;;;;;28.43;53.13;99646.56;1810043;78;21146;-78
2022/08/20 13:43:37;;;;;;;26.87;5.92;;;;;;;27.69;54.52;99668.88;1742016;82;21199;-78
2022/08/20 13:46:43;;;;;;;24.30;5.72;;;;;;;27.04;65.17;99704.58;1779944;78;21177;-79
2022/08/20 13:49:50;;;;;;;23.95;6.80;;;;;;;25.68;72.17;99734.41;1797283;78;21221;-80
2022/08/20 13:52:57;;;;;;;34.18;8.23;;;;;;;24.26;77.48;99732.08;1803672;78;21154;-79
2022/08/20 13:56:05;;;;;;;32.93;9.28;;;;;;;23.53;81.01;99731.72;1809345;78;21209;-79
2022/08/20 13:59:10;;;;;;;29.20;8.60;;;;;;;23.01;84.23;99741.03;1824380;78;21153;-78
2022/08/20 14:02:16;;;;;;;22.90;7.15;;;;;;;22.60;87.14;99760.28;1822931;78;21789;-77
2022/08/20 14:05:23;;;;;;;30.55;8.60;;;;;;;22.54;89.26;99774.46;1811568;78;21200;-78
2022/08/20 14:08:29;;;;;;;22.00;8.13;;;;;;;22.37;90.24;99799.68;1799878;79;21736;-80
2022/08/20 14:11:35;;;;;;;22.27;7.03;;;;;;;22.28;92.57;99817.43;1808285;78;21157;-79
2022/08/20 14:14:41;;;;;;;25.12;8.30;;;;;;;22.20;93.08;99815.12;1797221;79;21772;-79
2022/08/20 14:17:51;;;;;;;21.35;8.10;;;;;;;22.00;92.02;99800.98;1803088;79;21213;-78
2022/08/20 14:20:56;;;;;;;;;;;;;;;21.80;94.64;99803.86;1802432;78;21142;-78
2022/08/20 14:24:01;;;;;;;26.75;8.68;;;;;;;21.77;96.14;99811.88;1762354;80;20240;-78
2022/08/20 14:27:07;;;;;;;23.45;8.68;;;;;;;21.69;98.33;99822.40;1738995;82;21767;-79
2022/08/20 14:30:15;;;;;;;15.85;7.08;;;;;;;21.63;100.00;99816.46;1791697;80;21225;-78
2022/08/20 14:33:21;;;;;;;16.65;7.55;;;;;;;21.38;100.00;99812.00;1736299;82;21174;-78